createdAt,value
2023-05-04T00:02:09.748Z,90100.41
2023-05-04T00:04:36.145Z,90105.72
2023-05-04T00:07:02.414Z,90099.59
2023-05-04T00:09:28.636Z,90091.25
2023-05-04T00:11:54.925Z,90094.94
2023-05-04T00:14:21.187Z,90099.25
2023-05-04T00:16:47.461Z,90090.88
2023-05-04T00:19:13.743Z,90090.34
2023-05-04T00:21:39.996Z,90093.72
2023-05-04T00:24:06.295Z,90093.03
2023-05-04T00:26:32.592Z,90093.09
2023-05-04T00:28:58.809Z,90093.63
2023-05-04T00:31:25.072Z,90099.28
2023-05-04T00:33:51.352Z,90093.88
2023-05-04T00:36:17.628Z,90088.41
2023-05-04T00:38:43.860Z,90087.38
2023-05-04T00:41:10.107Z,90084.97
2023-05-04T00:43:36.386Z,90087.47
2023-05-04T00:46:02.664Z,90083.78
2023-05-04T00:48:28.901Z,90080.63
2023-05-04T00:50:55.187Z,90074.09
2023-05-04T00:53:21.462Z,90082.78
2023-05-04T00:55:47.688Z,90080.56
2023-05-04T00:58:13.916Z,90083.41
2023-05-04T01:00:40.214Z,90082.69
2023-05-04T01:03:06.693Z,90077.69
2023-05-04T01:05:33.036Z,90080.28
2023-05-04T01:07:59.324Z,90079.13
2023-05-04T01:10:25.580Z,90082.06
2023-05-04T01:12:51.885Z,90083.94
2023-05-04T01:15:18.143Z,90072.75
2023-05-04T01:17:44.472Z,90082.81
2023-05-04T01:20:10.785Z,90077.56
2023-05-04T01:22:37.014Z,90076.97
2023-05-04T01:25:03.274Z,90075.69
2023-05-04T01:27:29.539Z,90082.16
2023-05-04T01:29:55.796Z,90072.94
2023-05-04T01:32:22.217Z,90075.69
2023-05-04T01:34:48.638Z,90068.19
2023-05-04T01:37:14.888Z,90073.59
2023-05-04T01:39:41.173Z,90071.56
2023-05-04T01:42:07.468Z,90074.94
2023-05-04T01:44:33.720Z,90075.81
2023-05-04T01:46:59.954Z,90077.75
2023-05-04T01:49:26.190Z,90076.97
2023-05-04T01:51:52.438Z,90075.78
2023-05-04T01:54:18.687Z,90081.47
2023-05-04T01:56:44.979Z,90085.88
2023-05-04T01:59:11.222Z,90090.66
2023-05-04T02:01:37.521Z,90087.78
2023-05-04T02:04:03.936Z,90083.22
2023-05-04T02:06:30.274Z,90090.34
2023-05-04T02:08:56.526Z,90088.47
2023-05-04T02:11:22.792Z,90089.41
2023-05-04T02:13:49.007Z,90096.97
2023-05-04T02:16:15.330Z,90092.75
2023-05-04T02:18:41.713Z,90091.78
2023-05-04T02:21:07.999Z,90093.50
2023-05-04T02:23:34.333Z,90088.34
2023-05-04T02:26:00.578Z,90092.75
2023-05-04T02:28:26.861Z,90090.25
2023-05-04T02:30:53.095Z,90088.41
2023-05-04T02:33:19.326Z,90092.44
2023-05-04T02:35:45.554Z,90096.16
2023-05-04T02:38:11.824Z,90099.66
2023-05-04T02:40:38.101Z,90089.94
2023-05-04T02:43:04.396Z,90088.91
2023-05-04T02:45:30.660Z,90086.81
2023-05-04T02:47:56.958Z,90085.84
2023-05-04T02:50:23.299Z,90084.91
2023-05-04T02:52:49.530Z,90084.13
2023-05-04T02:55:15.778Z,90084.81
2023-05-04T02:57:42.025Z,90080.66
2023-05-04T03:00:08.262Z,90085.50
2023-05-04T03:02:34.553Z,90083.63
2023-05-04T03:05:00.840Z,90084.09
2023-05-04T03:07:27.111Z,90082.88
2023-05-04T03:09:53.350Z,90089.56
2023-05-04T03:12:19.580Z,90076.97
2023-05-04T03:14:45.872Z,90083.53
2023-05-04T03:17:12.095Z,90085.59
2023-05-04T03:19:38.361Z,90085.25
2023-05-04T03:22:04.669Z,90083.69
2023-05-04T03:24:30.976Z,90078.34
2023-05-04T03:26:57.290Z,90085.13
2023-05-04T03:29:23.576Z,90077.44
2023-05-04T03:31:49.894Z,90081.44
2023-05-04T03:34:16.146Z,90078.78
2023-05-04T03:36:42.438Z,90069.03
2023-05-04T03:39:08.698Z,90070.28
2023-05-04T03:41:34.935Z,90064.94
2023-05-04T03:44:01.197Z,90067.13
2023-05-04T03:46:27.493Z,90063.72
2023-05-04T03:48:53.873Z,90066.28
2023-05-04T03:51:20.158Z,90060.75
2023-05-04T03:53:46.398Z,90052.00
2023-05-04T03:56:12.652Z,90055.69
2023-05-04T03:58:38.920Z,90059.78
2023-05-04T04:01:05.171Z,90057.47
2023-05-04T04:03:31.746Z,90060.53
2023-05-04T04:05:58.158Z,90070.34
2023-05-04T04:08:24.448Z,90063.91
2023-05-04T04:10:50.693Z,90063.72
2023-05-04T04:13:17.017Z,90070.66
2023-05-04T04:15:43.418Z,90068.53
2023-05-04T04:18:09.770Z,90076.19
2023-05-04T04:20:36.006Z,90078.13
2023-05-04T04:23:02.259Z,90079.47
2023-05-04T04:25:28.525Z,90076.38
2023-05-04T04:27:54.761Z,90083.91
2023-05-04T04:30:20.990Z,90079.69
2023-05-04T04:32:47.309Z,90088.69
2023-05-04T04:35:13.597Z,90084.94
2023-05-04T04:37:39.830Z,90091.81
2023-05-04T04:40:06.228Z,90096.09
2023-05-04T04:42:32.707Z,90097.88
2023-05-04T04:44:58.959Z,90096.69
2023-05-04T04:47:25.250Z,90094.41
2023-05-04T04:49:51.533Z,90103.97
2023-05-04T04:52:17.781Z,90102.03
2023-05-04T04:54:44.017Z,90107.84
2023-05-04T04:57:10.263Z,90110.00
2023-05-04T04:59:36.522Z,90115.13
2023-05-04T05:02:02.830Z,90114.81
2023-05-04T05:04:29.111Z,90117.41
2023-05-04T05:06:55.387Z,90110.06
2023-05-04T05:09:21.639Z,90120.59
2023-05-04T05:11:47.956Z,90114.66
2023-05-04T05:14:14.240Z,90108.38
2023-05-04T05:16:40.546Z,90113.06
2023-05-04T05:19:06.825Z,90120.78
2023-05-04T05:21:33.101Z,90120.16
2023-05-04T05:23:59.346Z,90119.47
2023-05-04T05:26:25.610Z,90126.97
2023-05-04T05:28:51.871Z,90122.16
2023-05-04T05:31:18.188Z,90127.09
2023-05-04T05:33:44.441Z,90133.53
2023-05-04T05:36:10.702Z,90131.91
2023-05-04T05:38:36.992Z,90121.63
2023-05-04T05:41:03.270Z,90132.91
2023-05-04T05:43:29.509Z,90134.53
2023-05-04T05:45:55.778Z,90130.97
2023-05-04T05:48:22.036Z,90132.69
2023-05-04T05:50:48.362Z,90125.75
2023-05-04T05:53:14.676Z,90127.81
2023-05-04T05:55:40.920Z,90126.50
2023-05-04T05:58:07.149Z,90125.25
2023-05-04T06:00:33.449Z,90125.38
2023-05-04T06:02:59.800Z,90121.44
2023-05-04T06:05:26.179Z,90110.91
2023-05-04T06:07:52.429Z,90122.78
2023-05-04T06:10:18.715Z,90113.53
2023-05-04T06:12:45.040Z,90115.66
2023-05-04T06:15:11.321Z,90114.25
2023-05-04T06:17:37.589Z,90116.50
2023-05-04T06:20:04.090Z,90111.09
2023-05-04T06:22:30.522Z,90117.47
2023-05-04T06:25:01.526Z,90105.75
2023-05-04T06:27:30.113Z,90107.78
2023-05-04T06:29:56.387Z,90115.44
2023-05-04T06:32:22.825Z,90108.88
2023-05-04T06:34:49.098Z,90111.69
2023-05-04T06:37:16.157Z,90106.28
2023-05-04T06:39:42.696Z,90108.81
2023-05-04T06:42:08.985Z,90113.81
2023-05-04T06:44:35.277Z,90104.09
2023-05-04T06:47:01.597Z,90105.94
2023-05-04T06:49:27.835Z,90100.44
2023-05-04T06:51:54.071Z,90101.59
2023-05-04T06:54:20.314Z,90105.63
2023-05-04T06:56:46.607Z,90106.16
2023-05-04T06:59:12.919Z,90099.72
2023-05-04T07:01:39.227Z,90101.91
2023-05-04T07:04:05.752Z,90100.66
2023-05-04T07:06:32.193Z,90104.78
2023-05-04T07:08:58.481Z,90106.47
2023-05-04T07:11:24.751Z,90098.31
2023-05-04T07:13:51.056Z,90104.31
2023-05-04T07:16:17.357Z,90107.09
2023-05-04T07:18:43.632Z,90098.31
2023-05-04T07:21:26.149Z,90098.66
2023-05-04T07:23:54.339Z,90097.59
2023-05-04T07:26:20.631Z,90092.09
2023-05-04T07:28:46.871Z,90093.84
2023-05-04T07:31:13.121Z,90093.75
2023-05-04T07:33:39.362Z,90090.41
2023-05-04T07:36:05.591Z,90093.75
2023-05-04T07:38:31.817Z,90091.56
2023-05-04T07:40:58.051Z,90082.69
2023-05-04T07:43:24.280Z,90090.47
2023-05-04T07:45:50.751Z,90092.75
2023-05-04T07:48:18.061Z,90079.59
2023-05-04T07:50:44.493Z,90084.72
2023-05-04T07:53:10.744Z,90081.28
2023-05-04T07:55:36.983Z,90082.25
2023-05-04T07:58:03.214Z,90083.94
2023-05-04T08:00:29.456Z,90077.81
2023-05-04T08:02:55.701Z,90076.75
2023-05-04T08:05:21.976Z,90079.69
2023-05-04T08:07:48.202Z,90074.69
2023-05-04T08:10:14.570Z,90079.16
2023-05-04T08:12:41.750Z,90074.69
2023-05-04T08:15:08.175Z,90081.00
2023-05-04T08:17:34.452Z,90072.38
2023-05-04T08:20:00.690Z,90072.78
2023-05-04T08:22:26.917Z,90070.88
2023-05-04T08:24:53.179Z,90076.22
2023-05-04T08:27:19.404Z,90076.94
2023-05-04T08:29:45.645Z,90073.09
2023-05-04T08:32:11.916Z,90073.22
2023-05-04T08:34:38.168Z,90071.00
2023-05-04T08:37:04.429Z,90071.19
2023-05-04T08:39:30.694Z,90065.63
2023-05-04T08:41:56.934Z,90064.97
2023-05-04T08:44:23.229Z,90066.44
2023-05-04T08:46:49.448Z,90070.63
2023-05-04T08:49:15.728Z,90070.50
2023-05-04T08:51:41.959Z,90063.25
2023-05-04T08:54:08.224Z,90064.22
2023-05-04T08:56:34.542Z,90069.09
2023-05-04T08:59:00.779Z,90075.78
2023-05-04T09:01:27.075Z,90063.88
2023-05-04T09:03:53.468Z,90072.53
2023-05-04T09:06:19.752Z,90072.84
2023-05-04T09:08:46.025Z,90065.63
2023-05-04T09:11:12.376Z,90064.88
2023-05-04T09:13:38.712Z,90063.81
2023-05-04T09:16:05.046Z,90061.22
2023-05-04T09:18:31.312Z,90061.81
2023-05-04T09:20:57.604Z,90062.56
2023-05-04T09:23:23.987Z,90058.88
2023-05-04T09:25:50.311Z,90055.47
2023-05-04T09:28:16.604Z,90042.28
2023-05-04T09:30:42.907Z,90047.28
2023-05-04T09:33:09.152Z,90046.75
2023-05-04T09:35:35.377Z,90043.34
2023-05-04T09:38:01.605Z,90044.69
2023-05-04T09:40:27.890Z,90038.81
2023-05-04T09:42:54.187Z,90030.25
2023-05-04T09:45:20.510Z,90030.41
2023-05-04T09:47:47.007Z,90026.09
2023-05-04T09:50:13.330Z,90027.03
2023-05-04T09:52:39.566Z,90028.19
2023-05-04T09:55:06.212Z,90027.00
2023-05-04T09:57:32.707Z,90030.84
2023-05-04T09:59:58.949Z,90030.78
2023-05-04T10:02:25.217Z,90025.53
2023-05-04T10:04:51.690Z,90026.41
2023-05-04T10:07:18.011Z,90027.47
2023-05-04T10:09:44.234Z,90025.75
2023-05-04T10:12:10.487Z,90028.75
2023-05-04T10:14:36.721Z,90023.75
2023-05-04T10:17:03.005Z,90018.44
2023-05-04T10:19:29.295Z,90016.13
2023-05-04T10:21:55.555Z,90010.63
2023-05-04T10:24:21.807Z,90011.97
2023-05-04T10:26:48.040Z,90016.69
2023-05-04T10:29:14.308Z,90008.69
2023-05-04T10:31:40.687Z,90000.44
2023-05-04T10:34:06.993Z,90004.59
2023-05-04T10:36:33.235Z,90002.06
2023-05-04T10:38:59.481Z,90000.59
2023-05-04T10:41:25.750Z,90001.63
2023-05-04T10:43:52.031Z,89995.72
2023-05-04T10:46:18.297Z,89996.59
2023-05-04T10:48:44.648Z,89992.47
2023-05-04T10:51:10.984Z,89992.16
2023-05-04T10:53:37.224Z,89983.00
2023-05-04T10:56:03.446Z,89977.19
2023-05-04T10:58:29.662Z,89978.78
2023-05-04T11:00:55.948Z,89976.88
2023-05-04T11:03:22.575Z,89973.63
2023-05-04T11:05:48.997Z,89962.78
2023-05-04T11:08:15.264Z,89973.97
2023-05-04T11:10:41.528Z,89961.19
2023-05-04T11:13:08.165Z,89973.41
2023-05-04T11:15:34.620Z,89973.34
2023-05-04T11:18:01.002Z,89970.31
2023-05-04T11:20:27.393Z,89966.22
2023-05-04T11:22:53.670Z,89957.03
2023-05-04T11:25:19.922Z,89963.72
2023-05-04T11:27:46.418Z,89959.38
2023-05-04T11:30:12.717Z,89950.47
2023-05-04T11:32:39.017Z,89948.03
2023-05-04T11:35:05.513Z,89945.78
2023-05-04T11:37:32.021Z,89943.13
2023-05-04T11:39:58.277Z,89944.13
2023-05-04T11:42:24.565Z,89931.97
2023-05-04T11:44:50.843Z,89936.34
2023-05-04T11:47:17.123Z,89942.31
2023-05-04T11:49:43.352Z,89933.00
2023-05-04T11:52:09.634Z,89939.03
2023-05-04T11:54:35.997Z,89941.44
2023-05-04T11:57:02.248Z,89933.47
2023-05-04T11:59:28.500Z,89936.66
2023-05-04T12:01:54.752Z,89938.13
2023-05-04T12:04:21.087Z,89935.59
2023-05-04T12:06:47.426Z,89931.38
2023-05-04T12:09:13.698Z,89926.31
2023-05-04T12:11:39.987Z,89929.66
2023-05-04T12:14:06.248Z,89926.75
2023-05-04T12:16:32.532Z,89924.94
2023-05-04T12:18:58.765Z,89922.47
2023-05-04T12:21:24.990Z,89928.81
2023-05-04T12:23:51.224Z,89930.16
2023-05-04T12:26:19.655Z,89921.41
2023-05-04T12:28:46.206Z,89926.19
2023-05-04T12:31:12.561Z,89921.16
2023-05-04T12:33:38.831Z,89927.03
2023-05-04T12:36:05.075Z,89914.34
2023-05-04T12:38:31.325Z,89909.03
2023-05-04T12:40:57.595Z,89906.72
2023-05-04T12:43:23.888Z,89900.38
2023-05-04T12:45:50.141Z,89902.09
2023-05-04T12:48:16.422Z,89894.56
2023-05-04T12:50:42.755Z,89890.69
2023-05-04T12:53:08.995Z,89894.22
2023-05-04T12:55:35.233Z,89887.25
2023-05-04T12:58:01.519Z,89885.50
2023-05-04T13:00:27.814Z,89888.19
2023-05-04T13:02:54.170Z,89876.66
2023-05-04T13:05:20.524Z,89879.38
2023-05-04T13:07:46.829Z,89871.47
2023-05-04T13:10:13.127Z,89872.47
2023-05-04T13:12:39.431Z,89875.91
2023-05-04T13:15:05.866Z,89870.78
2023-05-04T13:17:32.395Z,89868.78
2023-05-04T13:19:58.651Z,89865.97
2023-05-04T13:22:24.951Z,89868.47
2023-05-04T13:24:51.221Z,89856.16
2023-05-04T13:27:17.459Z,89862.22
2023-05-04T13:29:43.683Z,89854.47
2023-05-04T13:32:09.913Z,89858.50
2023-05-04T13:34:36.192Z,89852.81
2023-05-04T13:37:02.472Z,89859.31
2023-05-04T13:39:28.731Z,89854.50
2023-05-04T13:41:54.957Z,89853.97
2023-05-04T13:44:21.278Z,89859.03
2023-05-04T13:46:47.682Z,89849.56
2023-05-04T13:49:14.030Z,89853.22
2023-05-04T13:51:40.268Z,89844.91
2023-05-04T13:54:06.556Z,89841.69
2023-05-04T13:56:32.848Z,89836.22
2023-05-04T13:58:59.071Z,89837.66
2023-05-04T14:01:25.441Z,89840.00
2023-05-04T14:03:51.800Z,89842.50
2023-05-04T14:06:18.036Z,89832.19
2023-05-04T14:08:44.269Z,89840.72
2023-05-04T14:11:10.489Z,89838.53
2023-05-04T14:13:36.769Z,89841.75
2023-05-04T14:16:03.100Z,89830.41
2023-05-04T14:18:29.378Z,89830.94
2023-05-04T14:20:55.627Z,89836.63
2023-05-04T14:23:21.996Z,89831.13
2023-05-04T14:25:48.319Z,89832.94
2023-05-04T14:28:14.601Z,89835.59
2023-05-04T14:30:40.841Z,89827.88
2023-05-04T14:33:07.138Z,89831.63
2023-05-04T14:35:33.540Z,89827.66
2023-05-04T14:37:59.810Z,89824.63
2023-05-04T14:40:26.161Z,89829.22
2023-05-04T14:42:52.440Z,89830.91
2023-05-04T14:45:18.754Z,89831.78
2023-05-04T14:47:45.115Z,89826.56
2023-05-04T14:50:11.525Z,89823.34
2023-05-04T14:52:37.904Z,89831.22
2023-05-04T14:55:04.198Z,89822.94
2023-05-04T14:57:30.462Z,89826.59
2023-05-04T14:59:56.749Z,89832.69
2023-05-04T15:02:23.057Z,89831.91
2023-05-04T15:04:49.324Z,89833.47
2023-05-04T15:07:15.856Z,89834.13
2023-05-04T15:09:42.180Z,89836.47
2023-05-04T15:12:08.444Z,89827.56
2023-05-04T15:14:34.676Z,89833.81
2023-05-04T15:17:00.945Z,89828.47
2023-05-04T15:19:27.223Z,89834.56
2023-05-04T15:21:53.503Z,89835.63
2023-05-04T15:24:19.754Z,89833.00
2023-05-04T15:26:46.023Z,89829.94
2023-05-04T15:29:12.286Z,89828.88
2023-05-04T15:31:38.609Z,89832.47
2023-05-04T15:34:04.943Z,89821.63
2023-05-04T15:36:31.191Z,89827.59
2023-05-04T15:38:57.447Z,89823.09
2023-05-04T15:41:23.747Z,89828.94
2023-05-04T15:43:50.008Z,89823.84
2023-05-04T15:46:16.282Z,89820.47
2023-05-04T15:48:42.568Z,89821.38
2023-05-04T15:51:10.317Z,89818.75
2023-05-04T15:53:36.565Z,89820.03
2023-05-04T15:56:05.018Z,89819.78
2023-05-04T15:58:32.337Z,89819.00
2023-05-04T16:00:58.647Z,89811.31
2023-05-04T16:03:24.990Z,89821.22
2023-05-04T16:05:51.303Z,89819.28
2023-05-04T16:08:17.611Z,89814.00
2023-05-04T16:10:43.884Z,89820.78
2023-05-04T16:13:12.037Z,89812.41
2023-05-04T16:15:38.562Z,89819.34
2023-05-04T16:18:04.925Z,89816.28
2023-05-04T16:20:31.219Z,89805.78
2023-05-04T16:22:57.472Z,89816.91
2023-05-04T16:25:23.735Z,89815.09
2023-05-04T16:27:49.993Z,89808.31
2023-05-04T16:30:16.223Z,89812.88
2023-05-04T16:32:42.522Z,89819.69
2023-05-04T16:35:08.842Z,89822.88
2023-05-04T16:37:35.074Z,89815.13
2023-05-04T16:40:01.322Z,89822.38
2023-05-04T16:42:27.579Z,89828.63
2023-05-04T16:44:53.875Z,89828.75
2023-05-04T16:47:20.175Z,89827.81
2023-05-04T16:49:46.421Z,89825.28
2023-05-04T16:52:12.664Z,89824.94
2023-05-04T16:54:38.929Z,89832.19
2023-05-04T16:57:05.206Z,89831.22
2023-05-04T16:59:31.467Z,89830.53
2023-05-04T17:01:57.737Z,89831.56
2023-05-04T17:04:24.045Z,89830.84
2023-05-04T17:06:50.336Z,89832.59
2023-05-04T17:09:16.584Z,89830.38
2023-05-04T17:11:42.882Z,89829.25
2023-05-04T17:14:09.218Z,89837.91
2023-05-04T17:16:35.525Z,89839.19
2023-05-04T17:19:01.794Z,89847.25
2023-05-04T17:21:28.025Z,89840.34
2023-05-04T17:23:54.293Z,89842.97
2023-05-04T17:26:20.584Z,89846.06
2023-05-04T17:28:46.823Z,89844.91
2023-05-04T17:31:13.064Z,89851.28
2023-05-04T17:33:39.304Z,89848.25
2023-05-04T17:36:05.539Z,89855.94
2023-05-04T17:38:31.785Z,89851.88
2023-05-04T17:40:58.055Z,89857.91
2023-05-04T17:43:24.288Z,89854.84
2023-05-04T17:45:50.567Z,89857.03
2023-05-04T17:48:16.839Z,89868.38
2023-05-04T17:50:43.097Z,89866.50
2023-05-04T17:53:09.383Z,89869.88
2023-05-04T17:55:35.623Z,89871.41
2023-05-04T17:58:01.860Z,89873.78
2023-05-04T18:00:28.092Z,89880.97
2023-05-04T18:02:54.456Z,89875.81
2023-05-04T18:05:20.832Z,89874.50
2023-05-04T18:07:47.055Z,89878.91
2023-05-04T18:10:13.291Z,89889.59
2023-05-04T18:12:39.558Z,89885.34
2023-05-04T18:15:05.971Z,89887.41
2023-05-04T18:17:32.305Z,89886.69
2023-05-04T18:19:58.556Z,89894.28
2023-05-04T18:22:24.802Z,89896.06
2023-05-04T18:24:51.040Z,89904.16
2023-05-04T18:27:17.314Z,89908.00
2023-05-04T18:29:43.561Z,89911.66
2023-05-04T18:32:09.908Z,89916.19
2023-05-04T18:34:36.172Z,89921.84
2023-05-04T18:37:02.434Z,89920.66
2023-05-04T18:39:28.703Z,89924.59
2023-05-04T18:41:54.951Z,89924.03
2023-05-04T18:44:21.191Z,89939.66
2023-05-04T18:46:47.439Z,89948.88
2023-05-04T18:49:13.724Z,89944.16
2023-05-04T18:51:40.064Z,89944.81
2023-05-04T18:54:06.291Z,89940.53
2023-05-04T18:56:32.534Z,89957.72
2023-05-04T18:58:58.782Z,89958.94
2023-05-04T19:01:25.117Z,89963.56
2023-05-04T19:03:51.480Z,89959.84
2023-05-04T19:06:17.748Z,89965.59
2023-05-04T19:08:43.967Z,89971.34
2023-05-04T19:11:10.205Z,89971.47
2023-05-04T19:13:36.457Z,89977.97
2023-05-04T19:16:02.707Z,89972.47
2023-05-04T19:18:28.948Z,89974.16
2023-05-04T19:20:55.182Z,89984.91
2023-05-04T19:23:21.407Z,89979.03
2023-05-04T19:25:47.657Z,89990.97
2023-05-04T19:28:13.909Z,89990.84
2023-05-04T19:30:40.164Z,89991.91
2023-05-04T19:33:06.517Z,89990.94
2023-05-04T19:35:32.803Z,90006.03
2023-05-04T19:37:59.049Z,90010.59
2023-05-04T19:40:25.337Z,90011.53
2023-05-04T19:42:51.631Z,90016.16
2023-05-04T19:45:17.854Z,90017.53
2023-05-04T19:47:44.128Z,90017.66
2023-05-04T19:50:10.403Z,90024.09
2023-05-04T19:52:36.656Z,90024.72
2023-05-04T19:55:02.914Z,90024.28
2023-05-04T19:57:29.156Z,90027.78
2023-05-04T19:59:55.411Z,90039.38
2023-05-04T20:02:21.678Z,90043.47
2023-05-04T20:04:47.978Z,90041.38
2023-05-04T20:07:14.282Z,90045.19
2023-05-04T20:09:40.526Z,90045.81
2023-05-04T20:12:06.796Z,90051.34
2023-05-04T20:14:33.036Z,90047.72
2023-05-04T20:16:59.397Z,90049.44
2023-05-04T20:19:25.683Z,90055.47
2023-05-04T20:21:51.939Z,90048.28
2023-05-04T20:24:18.202Z,90054.69
2023-05-04T20:26:44.448Z,90051.94
2023-05-04T20:29:10.693Z,90053.22
2023-05-04T20:31:36.978Z,90058.31
2023-05-04T20:34:03.254Z,90059.69
2023-05-04T20:36:29.532Z,90060.56
2023-05-04T20:38:55.775Z,90063.41
2023-05-04T20:41:22.015Z,90058.25
2023-05-04T20:43:48.266Z,90068.50
2023-05-04T20:46:14.514Z,90062.16
2023-05-04T20:48:40.801Z,90060.88
2023-05-04T20:53:39.435Z,90061.19
2023-05-04T20:56:05.679Z,90071.53
2023-05-04T20:58:31.938Z,90064.28
2023-05-04T21:00:58.168Z,90074.09
2023-05-04T21:03:24.457Z,90065.63
2023-05-04T21:05:50.744Z,90066.97
2023-05-04T21:08:16.993Z,90063.63
2023-05-04T21:10:43.247Z,90060.06
2023-05-04T21:13:09.550Z,90064.59
2023-05-04T21:15:35.849Z,90069.41
2023-05-04T21:18:02.217Z,90071.25
2023-05-04T21:20:28.524Z,90069.25
2023-05-04T21:22:54.756Z,90071.66
2023-05-04T21:25:21.011Z,90069.16
2023-05-04T21:27:47.280Z,90074.53
2023-05-04T21:30:13.514Z,90065.56
2023-05-04T21:32:39.801Z,90066.19
2023-05-04T21:35:06.039Z,90071.03
2023-05-04T21:37:32.293Z,90064.78
2023-05-04T21:39:58.549Z,90067.78
2023-05-04T21:42:24.779Z,90066.44
2023-05-04T21:44:51.029Z,90074.16
2023-05-04T21:47:17.303Z,90069.63
2023-05-04T21:49:43.542Z,90073.91
2023-05-04T21:52:09.775Z,90078.13
2023-05-04T21:54:36.013Z,90081.00
2023-05-04T21:57:02.301Z,90077.72
2023-05-04T21:59:28.535Z,90066.69
2023-05-04T22:01:54.779Z,90070.91
2023-05-04T22:04:21.165Z,90086.97
2023-05-04T22:06:47.438Z,90080.09
2023-05-04T22:09:13.728Z,90083.66
2023-05-04T22:11:40.000Z,90076.03
2023-05-04T22:14:06.234Z,90077.66
2023-05-04T22:16:32.533Z,90089.63
2023-05-04T22:18:58.811Z,90089.28
2023-05-04T22:21:25.079Z,90092.31
2023-05-04T22:23:51.382Z,90089.44
2023-05-04T22:26:17.666Z,90097.56
2023-05-04T22:28:43.914Z,90100.00
2023-05-04T22:31:10.158Z,90093.63
2023-05-04T22:33:36.432Z,90097.41
2023-05-04T22:36:02.661Z,90108.69
2023-05-04T22:38:28.913Z,90103.91
2023-05-04T22:40:55.146Z,90106.88
2023-05-04T22:43:21.440Z,90108.81
2023-05-04T22:45:47.721Z,90106.81
2023-05-04T22:48:13.957Z,90105.22
2023-05-04T22:50:40.238Z,90114.97
2023-05-04T22:53:06.631Z,90111.59
2023-05-04T22:55:32.934Z,90116.31
2023-05-04T22:57:59.266Z,90113.06
2023-05-04T23:00:25.590Z,90118.34
2023-05-04T23:02:51.982Z,90119.84
2023-05-04T23:05:18.345Z,90125.88
2023-05-04T23:07:44.656Z,90127.91
2023-05-04T23:10:10.894Z,90126.22
2023-05-04T23:12:37.123Z,90125.31
2023-05-04T23:15:03.377Z,90119.38
2023-05-04T23:17:29.765Z,90121.59
2023-05-04T23:19:56.083Z,90118.78
2023-05-04T23:22:22.333Z,90122.59
2023-05-04T23:24:48.584Z,90119.13
2023-05-04T23:27:14.880Z,90115.00
2023-05-04T23:29:41.170Z,90109.59
2023-05-04T23:32:07.442Z,90109.44
2023-05-04T23:34:33.850Z,90107.00
2023-05-04T23:37:00.142Z,90104.06
2023-05-04T23:39:26.409Z,90103.19
2023-05-04T23:41:52.700Z,90107.31
2023-05-04T23:44:18.973Z,90104.34
2023-05-04T23:46:45.253Z,90110.66
2023-05-04T23:49:11.519Z,90111.19
2023-05-04T23:51:37.816Z,90112.22
2023-05-04T23:54:04.027Z,90122.72
2023-05-04T23:56:30.265Z,90117.06
2023-05-04T23:58:56.579Z,90108.84
